Metar Cercanos

 

LEPA - Palma De Mallorc, Spain
Distance from station: ONO 38km
Actualización: Sat, 28-May-2022 3:00am CEST
Despejado
Despejado
 Viento del calm
Viento: Calma
Temperatura: 16°C
Rocío: 13°C
Humedad: 83%
Barómetro: 1015 hPa
Resumen: Despejado
Visibility: greater than 10 km
2022/05/28 01:00 LEPA 280100Z 00000KT CAVOK 16/13 Q1015 NOSIG
LEMH - Mahon/Menorca Is, Spain
Distance from station: ENE 105km
Actualización: Sat, 28-May-2022 3:00am CEST
Despejado
Despejado
 Viento del NNO
Viento: NNO 30 km/h, Racha: 52 km/h
Temperatura: 21°C
Rocío: 13°C
Humedad: 60%
Barómetro: 1014 hPa
Resumen: Despejado
Visibility: greater than 10 km
2022/05/28 01:00 LEMH 280100Z AUTO 34016G28KT 310V010 CAVOK 21/13 Q1014
 
LEIB - Ibiza/Es Codola, Spain
Distance from station: OSO 165km
Actualización: Sat, 28-May-2022 3:00am CEST
Despejado
Despejado
 Viento del OSO
Viento: OSO 7 km/h
Temperatura: 17°C
Rocío: 14°C
Humedad: 83%
Barómetro: 1017 hPa
Resumen: Despejado
Visibility: greater than 10 km
2022/05/28 01:00 LEIB 280100Z 24004KT CAVOK 17/14 Q1017 NOSIG
LEBL - Barcelona Airpor, Spain
Distance from station: NNO 225km
Actualización: Sat, 28-May-2022 3:00am CEST
Despejado
Despejado
 Viento del ONO
Viento: ONO 11 km/h
Temperatura: 20°C
Rocío: 13°C
Humedad: 64%
Barómetro: 1015 hPa
Resumen: Despejado
Visibility: greater than 10 km
2022/05/28 01:00 LEBL 280100Z 30006KT CAVOK 20/13 Q1015 NOSIG
 
LEVC - Valencia (civ/Mi, Spain
Distance from station: NO 188km
Actualización: Sat, 28-May-2022 3:00am CEST
Despejado
Despejado
 Viento del O
Viento: O 6 km/h
Temperatura: 18°C
Rocío: 13°C
Humedad: 73%
Barómetro: 1017 hPa
Resumen: Despejado
Visibility: greater than 10 km
2022/05/28 01:00 LEVC 280100Z 27003KT 230V290 CAVOK 18/13 Q1017 NOSIG
LEGE - Gerona/Costa Bra, Spain
Distance from station: N 276km
Actualización: Sat, 28-May-2022 3:00am CEST
Despejado
Despejado
 Viento del calm
Viento: Calma
Temperatura: 14°C
Rocío: 11°C
Humedad: 82%
Barómetro: 1016 hPa
Resumen: Despejado
Visibility: greater than 10 km
2022/05/28 01:00 LEGE 280100Z 00000KT CAVOK 14/11 Q1016
 
LEAL - Alicante/El Alte, Spain
Distance from station: OSO 344km
Actualización: Sat, 28-May-2022 3:00am CEST
Despejado
Despejado
 Viento del O
Viento: O 4 km/h
Temperatura: 17°C
Rocío: 15°C
Humedad: 88%
Barómetro: 1017 hPa
Resumen: Despejado
Visibility: greater than 10 km
2022/05/28 01:00 LEAL 280100Z 28002KT CAVOK 17/15 Q1017 NOSIG
LEAM - Almeria Airport, Spain
Distance from station: SSO 56km
Actualización: Sat, 28-May-2022 3:00am CEST
Despejado
Despejado
 Viento del O
Viento: O 6 km/h
Temperatura: 20°C
Rocío: 9°C
Humedad: 49%
Barómetro: 1017 hPa
Resumen: Despejado
Visibility: greater than 10 km
2022/05/28 01:00 LEAM 280100Z AUTO 28003KT CAVOK 20/09 Q1017
 
LEZG - Zaragoza (mil/Ci, Spain
Distance from station: NO 431km
Actualización: Sat, 28-May-2022 3:00am CEST
Despejado
Despejado
 Viento del O
Viento: O 20 km/h
Temperatura: 17°C
Rocío: 11°C
Humedad: 68%
Barómetro: 1019 hPa
Resumen: Despejado
Visibility: greater than 10 km
2022/05/28 01:00 LEZG 280100Z 27011KT CAVOK 17/11 Q1019
LEMD - Madrid/Barajas, Spain
Distance from station: ONO 234km
Actualización: Sat, 28-May-2022 3:00am CEST
Despejado
Despejado
 Viento del N
Viento: N 4 km/h
Temperatura: 18°C
Rocío: 6°C
Humedad: 46%
Barómetro: 1019 hPa
Resumen: Despejado
Visibility: greater than 10 km
2022/05/28 01:00 LEMD 280100Z 35002KT CAVOK 18/06 Q1019 NOSIG
 
LEGR - Granada Airport, Spain
Distance from station: OSO 62km
Actualización: Sat, 28-May-2022 3:00am CEST
Despejado
Despejado
 Viento del varies
Viento: varies 4 km/h
Temperatura: 18°C
Rocío: 5°C
Humedad: 43%
Barómetro: 1019 hPa
Resumen: Despejado
Visibility: greater than 10 km
2022/05/28 01:00 LEGR 280100Z AUTO VRB02KT CAVOK 18/05 Q1019
LEMG - Malaga (civ/Mil), Spain
Distance from station: OSO 227km
Actualización: Sat, 28-May-2022 3:00am CEST
Despejado
Despejado
 Viento del ONO
Viento: ONO 11 km/h
Temperatura: 17°C
Rocío: 8°C
Humedad: 56%
Barómetro: 1017 hPa
Resumen: Despejado
Visibility: greater than 10 km
2022/05/28 01:00 LEMG 280100Z 30006KT CAVOK 17/08 Q1017 NOSIG
 
LEZL - Sevilla (civ/Mil, Spain
Distance from station: S 318km
Actualización: Sat, 28-May-2022 3:00am CEST
Despejado
Despejado
 Viento del E
Viento: E 4 km/h
Temperatura: 19°C
Rocío: 10°C
Humedad: 56%
Barómetro: 1015 hPa
Resumen: Despejado
Visibility: greater than 10 km
2022/05/28 01:00 LEZL 280100Z AUTO 08002KT CAVOK 19/10 Q1015
LEVT - Vitoria, Spain
Distance from station: NO 226km
Actualización: Sat, 28-May-2022 3:00am CEST
Muy nuboso
Muy nuboso
 Viento del NNE
Viento: NNE 13 km/h
Temperatura: 13°C
Rocío: 12°C
Humedad: 94%
Barómetro: 1022 hPa
Clouds: Muy nuboso
Visibility: 10 km
Cloud details: Few Clouds 396 m
Muy nuboso 671 m
2022/05/28 01:00 LEVT 280100Z 02007KT 350V050 9999 FEW013 BKN022 13/12 Q1022
 
LEBB - Bilbao/Sondica, Spain
Distance from station: NNO 235km
Actualización: Sat, 28-May-2022 3:00am CEST
Muy nuboso
Muy nuboso
 Viento del ENE
Viento: ENE 6 km/h
Temperatura: 15°C
Rocío: 14°C
Humedad: 94%
Barómetro: 1022 hPa
Clouds: Muy nuboso
Visibility: 10 km
Cloud details: Muy nuboso 640 m
2022/05/28 01:00 LEBB 280100Z 06003KT 9999 BKN021 15/14 Q1022 NOSIG
LESO - San Sebastian/Fu, Spain
Distance from station: N 231km
Actualización: Sat, 28-May-2022 3:00am CEST
Cubierto
Cubierto
 Viento del SSO
Viento: SSO 6 km/h
Temperatura: 15°C
Rocío: 15°C
Humedad: 100%
Barómetro: 1022 hPa
Clouds: Cubierto
Visibility: 10 km
Cloud details: Cubierto 549 m
2022/05/28 01:00 LESO 280100Z AUTO 20003KT 9999 OVC018 15/15 Q1022
 
LEVD - Valladolid(Mil/C, Spain
Distance from station: ONO 239km
Actualización: Sat, 28-May-2022 3:00am CEST
Despejado
Despejado
 Viento del ENE
Viento: ENE 17 km/h
Temperatura: 13°C
Rocío: 9°C
Humedad: 77%
Barómetro: 1020 hPa
Resumen: Despejado
Visibility: greater than 10 km
2022/05/28 01:00 LEVD 280100Z AUTO 06009KT CAVOK 13/09 Q1020
LESA - Salamanca (civ/M, Spain
Distance from station: ONO 349km
Actualización: Sat, 28-May-2022 3:00am CEST
Despejado
Despejado
 Viento del calm
Viento: Calma
Temperatura: 14°C
Rocío: 6°C
Humedad: 59%
Barómetro: 1019 hPa
Clouds: Despejado
Visibility: 7 km
2022/05/28 01:00 LESA 280100Z AUTO 00000KT 7000 NCD 14/06 Q1019
 
LEXJ - Santander/Paraya, Spain
Distance from station: NNO 247km
Actualización: Sat, 28-May-2022 3:00am CEST
Despejado
Despejado
 Viento del ESE
Viento: ESE 6 km/h
Temperatura: 14°C
Rocío: 13°C
Humedad: 94%
Barómetro: 1022 hPa
Resumen: Despejado
Visibility: greater than 10 km
2022/05/28 01:00 LEXJ 280100Z AUTO 11003KT CAVOK 14/13 Q1022
LEAS - Asturias/Aviles, Spain
Distance from station: NO 214km
Actualización: Sat, 28-May-2022 3:00am CEST
Cubierto
Cubierto
 Viento del E
Viento: E 15 km/h
Temperatura: 15°C
Rocío: 14°C
Humedad: 94%
Barómetro: 1021 hPa
Clouds: Cubierto
Visibility: 10 km
Cloud details: Parcialmente nuboso 274 m
Cubierto 488 m
2022/05/28 01:00 LEAS 280100Z AUTO 09008KT 050V160 9999 SCT009 OVC016 15/14 Q1021
 
LECO - La Coruna/Alvedr, Spain
Distance from station: ONO 222km
Actualización: Sat, 28-May-2022 3:00am CEST
Despejado
Despejado
 Viento del varies
Viento: varies 4 km/h
Temperatura: 14°C
Rocío: 11°C
Humedad: 82%
Barómetro: 1017 hPa
Resumen: Despejado
Visibility: greater than 10 km
2022/05/28 01:00 LECO 280100Z AUTO VRB02KT CAVOK 14/11 Q1017
LEVX - Vigo/Peinador, Spain
Distance from station: O 214km
Actualización: Sat, 28-May-2022 3:00am CEST
Despejado
Despejado
 Viento del varies
Viento: varies 4 km/h
Temperatura: 22°C
Rocío: 11°C
Humedad: 50%
Barómetro: 1015 hPa
Resumen: Despejado
Visibility: greater than 10 km
2022/05/28 01:00 LEVX 280100Z VRB02KT CAVOK 22/11 Q1015 NOSIG